METAR Data
IDs: Format: Raw Decoded Include TAF

Data at: 1527 UTC 24 Aug 2019

PADL 241356Z AUTO 03003KT 10SM CLR 08/07 A2975 RMK AO2 SLP080 T00780067
PADL 241256Z AUTO 34003KT 10SM CLR 08/07 A2974 RMK AO2 SLP077 T00830072
PADL 241156Z AUTO 00000KT 10SM CLR 09/07 A2974 RMK AO2 SLP075 T00890072 10156 20083 53007
PADL 241056Z AUTO 35004KT 10SM CLR 10/08 A2973 RMK AO2 SLP073 T01000078
PADL 240956Z AUTO 34003KT 10SM CLR 10/09 A2972 RMK AO2 SLP069 T01000089
PADL 240856Z AUTO 00000KT 10SM CLR 11/09 A2972 RMK AO2 SLP068 T01060094 401940061 53012
PADL 240756Z AUTO 00000KT 10SM BKN090 12/10 A2970 RMK AO2 SLP063 T01220100
PADL 240656Z AUTO 00000KT 10SM SCT100 13/11 A2969 RMK AO2 SLP059 T01330106
PADL 240556Z AUTO 15003KT 10SM SCT044 16/12 A2968 RMK AO2 SLP056 T01560117 10194 20156 53009
PADL 240456Z 19006KT 10SM SCT040 17/11 A2967 RMK AO2 SLP051 T01670106
PADL 240356Z 23008KT 10SM SCT040 18/10 A2966 RMK AO2 SLP048 T01830100
PADL 240256Z 18006KT 10SM SCT040 19/10 A2965 RMK AO2 SLP047 T01890100 55004
PADL 240156Z 18010KT 10SM SCT050 18/12 A2965 RMK AO2 SLP047 T01830117
PADL 240056Z 15009KT 10SM SCT030 18/11 A2966 RMK AO2 SLP049 T01830111
PADL 232356Z 18009KT 10SM CLR 18/08 A2967 RMK AO2 SLP051 T01780078 10183 20111 57005
PADL 232256Z 15006KT 10SM SCT040 18/11 A2967 RMK AO2 SLP052 T01780106
PADL 232156Z 16004KT 10SM FEW040 17/07 A2968 RMK AO2 SLP054 T01720072
PADL 232124Z 13005KT 10SM FEW040 18/08 A2967
PADL 231956Z 13004KT 10SM CLR 14/11 A2968 RMK AO2 SLP055 T01440106
PADL 231856Z 00000KT 10SM CLR 14/09 A2968 RMK AO2 SLP054 T01440094
PADL 231756Z 00000KT 10SM CLR 11/09 A2968 RMK AO2 SLP054 T01110089 10111 20061 53001
PADL 231656Z 00000KT 10SM CLR 09/08 A2967 RMK AO2 SLP054 T00890078
PADL 231556Z 00000KT 10SM CLR 06/06 A2967 RMK AO2 SLP053 T00610056
PADL 231456Z AUTO 00000KT 10SM CLR 07/06 A2967 RMK AO2 SLP053 T00670056 53003
PADL 231356Z AUTO 02003KT 10SM OVC090 08/07 A2967 RMK AO2 SLP051 T00830067
PADL 231256Z AUTO 00000KT 10SM FEW095 09/08 A2966 RMK AO2 SLP049 T00940083
PADL 231156Z AUTO 00000KT 10SM OVC110 09/08 A2966 RMK AO2 SLP050 T00890078 10150 20089 58001
PADL 231056Z AUTO 00000KT 10SM FEW110 09/08 A2966 RMK AO2 SLP050 T00890078
PADL 230956Z AUTO 00000KT 10SM CLR 11/08 A2967 RMK AO2 SLP051 T01060078
PADL 230856Z AUTO 00000KT 10SM FEW070 12/08 A2966 RMK AO2 SLP050 T01170083 402000094 51005
PADL 230756Z AUTO 00000KT 10SM OVC075 13/09 A2966 RMK AO2 SLP049 T01280089
PADL 230656Z AUTO 00000KT 10SM BKN090 13/08 A2966 RMK AO2 SLP048 T01330083
PADL 230556Z AUTO 00000KT 10SM SCT065 15/09 A2965 RMK AO2 SLP045 T01500094 10200 20150 53004
PADL 230456Z 17004KT 10SM SCT070 17/06 A2964 RMK AO2 SLP043 T01720061
PADL 230356Z 13003KT 10SM FEW075 17/07 A2964 RMK AO2 SLP041 T01720072